createdAt,value
2018-11-26T00:03:49.150Z,37.70
2018-11-26T00:06:36.056Z,42.97
2018-11-26T00:15:12.292Z,34.37
2018-11-26T00:17:52.247Z,33.20
2018-11-26T00:20:24.432Z,38.20
2018-11-26T00:23:23.760Z,38.27
2018-11-26T00:26:16.820Z,36.67
2018-11-26T00:28:49.869Z,37.67
2018-11-26T00:34:52.859Z,39.43
2018-11-26T00:37:54.300Z,36.97
2018-11-26T00:40:24.729Z,39.43
2018-11-26T00:42:55.364Z,33.10
2018-11-26T00:45:24.862Z,41.10
2018-11-26T00:48:00.903Z,34.50
2018-11-26T00:50:31.938Z,37.53
2018-11-26T00:53:02.147Z,34.67
2018-11-26T00:55:31.964Z,32.47
2018-11-26T00:58:02.973Z,32.70
2018-11-26T01:00:32.230Z,33.77
2018-11-26T01:03:01.289Z,29.20
2018-11-26T01:05:35.724Z,33.67
2018-11-26T01:08:05.010Z,32.13
2018-11-26T01:10:58.786Z,24.63
2018-11-26T01:13:28.039Z,37.23
2018-11-26T01:15:57.183Z,34.07
2018-11-26T01:18:26.376Z,30.40
2018-11-26T01:20:55.467Z,30.13
2018-11-26T01:23:25.434Z,37.50
2018-11-26T01:44:05.661Z,25.97
2018-11-26T01:46:57.424Z,27.67
2018-11-26T01:50:11.198Z,30.17
2018-11-26T01:52:44.359Z,29.13
2018-11-26T01:58:13.702Z,29.20
2018-11-26T02:00:42.788Z,24.63
2018-11-26T02:03:34.713Z,29.17
2018-11-26T02:06:31.832Z,26.80
2018-11-26T02:09:05.505Z,27.97
2018-11-26T02:11:35.209Z,24.63
2018-11-26T02:14:25.449Z,26.40
2018-11-26T02:17:05.705Z,30.67
2018-11-26T02:20:03.245Z,25.40
2018-11-26T02:23:01.920Z,26.50
2018-11-26T02:26:06.535Z,30.57
2018-11-26T02:28:35.923Z,34.43
2018-11-26T02:31:05.231Z,28.90
2018-11-26T02:33:34.281Z,21.70
2018-11-26T02:36:03.990Z,29.13
2018-11-26T02:38:33.082Z,29.53
2018-11-26T02:41:02.122Z,26.70
2018-11-26T02:43:31.175Z,29.73
2018-11-26T02:46:02.063Z,32.43
2018-11-26T02:48:31.975Z,30.33
2018-11-26T02:53:47.481Z,30.93
2018-11-26T02:56:16.860Z,27.80
2018-11-26T02:58:45.958Z,30.70
2018-11-26T03:01:15.018Z,33.53
2018-11-26T03:03:44.115Z,28.00
2018-11-26T03:06:13.452Z,34.30
2018-11-26T03:08:42.532Z,29.83
2018-11-26T03:11:11.821Z,26.87
2018-11-26T03:13:42.417Z,26.90
2018-11-26T03:16:12.018Z,23.90
2018-11-26T03:18:41.767Z,34.80
2018-11-26T03:21:11.154Z,23.60
2018-11-26T03:23:40.235Z,29.70
2018-11-26T03:26:09.323Z,33.70
2018-11-26T03:28:38.359Z,28.00
2018-11-26T03:31:09.305Z,28.87
2018-11-26T03:33:39.398Z,21.63
2018-11-26T03:36:08.528Z,31.63
2018-11-26T03:38:55.003Z,30.83
2018-11-26T03:41:24.483Z,27.60
2018-11-26T03:43:53.518Z,33.47
2018-11-26T03:46:22.648Z,30.23
2018-11-26T03:48:51.685Z,36.20
2018-11-26T03:51:20.740Z,28.53
2018-11-26T03:53:49.802Z,35.37
2018-11-26T03:56:18.914Z,26.37
2018-11-26T03:58:48.184Z,28.00
2018-11-26T04:01:17.244Z,30.23
2018-11-26T04:03:46.345Z,33.13
2018-11-26T04:06:15.416Z,31.73
2018-11-26T04:08:45.014Z,36.87
2018-11-26T04:11:14.188Z,35.90
2018-11-26T04:13:43.338Z,31.07
2018-11-26T04:16:12.414Z,26.30
2018-11-26T04:18:41.510Z,35.03
2018-11-26T04:21:10.591Z,37.47
2018-11-26T04:23:39.650Z,29.73
2018-11-26T04:26:08.713Z,35.20
2018-11-26T04:28:37.849Z,37.63
2018-11-26T04:31:06.916Z,36.97
2018-11-26T04:33:36.178Z,33.63
2018-11-26T04:36:05.240Z,33.60
2018-11-26T04:38:34.368Z,28.03
2018-11-26T04:41:04.175Z,34.63
2018-11-26T04:43:33.370Z,34.50
2018-11-26T04:46:02.566Z,28.60
2018-11-26T04:48:32.286Z,28.83
2018-11-26T04:51:01.386Z,29.67
2018-11-26T04:53:37.027Z,30.80
2018-11-26T04:56:06.176Z,29.90
2018-11-26T04:58:35.270Z,31.13
2018-11-26T05:01:04.705Z,28.77
2018-11-26T05:03:33.900Z,29.00
2018-11-26T05:06:03.065Z,27.23
2018-11-26T05:08:33.102Z,23.80
2018-11-26T05:11:02.360Z,24.87
2018-11-26T05:13:31.539Z,32.90
2018-11-26T05:16:01.247Z,20.90
2018-11-26T05:18:31.719Z,24.83
2018-11-26T05:21:02.169Z,24.47
2018-11-26T05:23:31.853Z,19.70
2018-11-26T05:26:02.885Z,21.37
2018-11-26T05:28:32.265Z,23.17
2018-11-26T05:31:08.209Z,21.27
2018-11-26T05:33:37.111Z,18.30
2018-11-26T05:36:06.312Z,17.30
2018-11-26T05:38:35.516Z,13.93
2018-11-26T05:41:04.602Z,18.43
2018-11-26T05:43:34.656Z,17.57
2018-11-26T05:46:03.719Z,13.47
2018-11-26T05:48:32.800Z,17.53
2018-11-26T05:51:01.857Z,18.53
2018-11-26T05:53:31.728Z,20.63
2018-11-26T05:56:01.767Z,15.63
2018-11-26T05:58:33.159Z,15.40
2018-11-26T06:01:06.391Z,14.17
2018-11-26T06:03:35.697Z,19.10
2018-11-26T06:06:05.002Z,15.10
2018-11-26T06:08:34.031Z,20.33
2018-11-26T06:11:03.101Z,19.90
2018-11-26T06:13:32.148Z,15.90
2018-11-26T06:16:01.179Z,17.37
2018-11-26T06:18:30.193Z,15.00
2018-11-26T06:20:59.254Z,11.93
2018-11-26T06:23:28.398Z,11.37
2018-11-26T06:25:57.491Z,15.13
2018-11-26T06:28:26.632Z,15.53
2018-11-26T06:30:56.927Z,15.67
2018-11-26T06:33:26.229Z,13.50
2018-11-26T06:35:55.273Z,13.10
2018-11-26T06:38:24.331Z,14.70
2018-11-26T06:40:53.350Z,15.13
2018-11-26T06:43:22.589Z,10.33
2018-11-26T06:45:51.703Z,13.93
2018-11-26T06:48:20.831Z,15.43
2018-11-26T06:50:50.009Z,14.23
2018-11-26T06:53:19.173Z,12.83
2018-11-26T06:55:48.364Z,13.83
2018-11-26T06:58:17.517Z,11.33
2018-11-26T07:00:46.647Z,11.70
2018-11-26T07:03:15.834Z,14.77
2018-11-26T07:05:44.890Z,11.90
2018-11-26T07:08:13.962Z,9.43
2018-11-26T07:10:44.330Z,12.87
2018-11-26T07:13:15.656Z,12.77
2018-11-26T07:15:44.866Z,10.63
2018-11-26T07:18:14.711Z,13.83
2018-11-26T07:20:43.795Z,13.70
2018-11-26T07:23:13.046Z,14.70
2018-11-26T07:25:42.497Z,14.30
2018-11-26T07:28:11.813Z,9.70
2018-11-26T07:30:41.131Z,11.70
2018-11-26T07:33:12.261Z,11.70
2018-11-26T07:35:42.980Z,11.50
2018-11-26T07:38:12.739Z,9.50
2018-11-26T07:40:42.532Z,12.40
2018-11-26T07:43:13.601Z,13.00
2018-11-26T07:45:42.711Z,9.53
2018-11-26T07:48:14.251Z,10.50
2018-11-26T07:50:43.727Z,9.97
2018-11-26T07:53:13.024Z,15.30
2018-11-26T07:55:42.202Z,11.20
2018-11-26T07:58:11.999Z,10.60
2018-11-26T08:00:41.875Z,9.03
2018-11-26T08:03:11.638Z,8.73
2018-11-26T08:05:41.609Z,5.97
2018-11-26T08:08:10.799Z,12.03
2018-11-26T08:10:40.060Z,9.60
2018-11-26T08:13:09.143Z,9.50
2018-11-26T08:15:38.457Z,7.93
2018-11-26T08:18:07.847Z,8.73
2018-11-26T08:20:38.105Z,10.73
2018-11-26T08:23:07.521Z,10.80
2018-11-26T08:25:37.111Z,9.73
2018-11-26T08:28:06.723Z,9.20
2018-11-26T08:30:36.769Z,8.57
2018-11-26T08:33:06.664Z,10.30
2018-11-26T08:35:39.020Z,12.67
2018-11-26T08:38:33.522Z,10.63
2018-11-26T08:41:13.570Z,12.17
2018-11-26T08:43:45.062Z,7.50
2018-11-26T08:46:19.167Z,8.37
2018-11-26T08:48:53.632Z,7.77
2018-11-26T08:51:27.339Z,5.43
2018-11-26T08:53:56.958Z,7.83
2018-11-26T08:56:26.721Z,5.93
2018-11-26T08:58:56.889Z,6.00
2018-11-26T09:01:31.178Z,5.23
2018-11-26T09:04:04.525Z,6.10
2018-11-26T09:06:33.919Z,8.77
2018-11-26T09:09:03.920Z,6.00
2018-11-26T09:15:10.131Z,8.85
2018-11-26T09:18:27.348Z,5.00
2018-11-26T09:20:56.982Z,8.03
2018-11-26T09:23:34.625Z,14.40
2018-11-26T09:26:09.677Z,6.97
2018-11-26T09:28:38.828Z,7.90
2018-11-26T10:27:50.224Z,3.70
2018-11-26T10:30:24.682Z,2.63
2018-11-26T10:35:56.801Z,2.37
2018-11-26T10:38:33.638Z,4.30
2018-11-26T10:41:03.520Z,4.07
2018-11-26T10:43:33.599Z,5.50
2018-11-26T10:46:02.776Z,4.33
2018-11-26T10:48:53.607Z,3.33
2018-11-26T10:51:23.024Z,3.33
2018-11-26T10:53:53.544Z,2.90
2018-11-26T10:56:23.024Z,3.67
2018-11-26T10:58:53.292Z,4.70
2018-11-26T11:01:28.366Z,3.50
2018-11-26T11:03:59.167Z,5.47
2018-11-26T11:06:28.357Z,5.07
2018-11-26T11:08:57.594Z,3.27
2018-11-26T11:11:27.708Z,7.07
2018-11-26T11:13:58.375Z,9.53
2018-11-26T11:16:27.544Z,5.00
2018-11-26T11:18:56.713Z,5.00
2018-11-26T11:21:27.005Z,4.80
2018-11-26T11:23:56.344Z,2.87
2018-11-26T11:26:28.701Z,4.87
2018-11-26T11:28:58.022Z,3.30
2018-11-26T11:31:28.068Z,4.27
2018-11-26T11:33:59.323Z,2.83
2018-11-26T11:36:28.530Z,3.70
2018-11-26T11:38:58.077Z,5.87
2018-11-26T11:41:27.404Z,5.33
2018-11-26T11:43:56.482Z,3.23
2018-11-26T11:46:25.596Z,3.30
2018-11-26T11:48:54.670Z,7.00
2018-11-26T11:51:23.951Z,2.40
2018-11-26T11:53:53.125Z,1.93
2018-11-26T11:56:22.200Z,1.93
2018-11-26T11:58:51.370Z,2.87
2018-11-26T12:01:20.417Z,4.60
2018-11-26T12:03:49.568Z,2.77
2018-11-26T12:06:38.773Z,3.90
2018-11-26T12:09:10.234Z,6.70
2018-11-26T12:11:39.617Z,4.30
2018-11-26T12:14:09.315Z,10.20
2018-11-26T12:16:39.641Z,4.33
2018-11-26T12:19:09.185Z,2.77
2018-11-26T12:21:44.969Z,4.50
2018-11-26T12:24:15.319Z,14.63
2018-11-26T12:26:44.689Z,5.80
2018-11-26T12:29:41.986Z,3.37
2018-11-26T12:32:11.577Z,19.93
2018-11-26T12:34:43.079Z,7.17
2018-11-26T12:37:13.003Z,6.03
2018-11-26T12:39:42.499Z,2.47
2018-11-26T12:42:20.152Z,5.87
2018-11-26T12:44:59.345Z,40.77
2018-11-26T12:47:36.023Z,2.07
2018-11-26T12:50:07.114Z,4.10
2018-11-26T12:52:52.066Z,2.53
2018-11-26T12:55:31.646Z,3.50
2018-11-26T12:58:01.198Z,3.73
2018-11-26T13:00:30.969Z,6.93
2018-11-26T13:03:09.734Z,5.60
2018-11-26T13:05:47.365Z,2.67
2018-11-26T13:11:47.423Z,3.70
2018-11-26T13:17:04.832Z,2.60
2018-11-26T13:19:51.206Z,2.03
2018-11-26T13:22:30.326Z,9.43
2018-11-26T13:25:02.573Z,4.90
2018-11-26T13:27:32.221Z,3.57
2018-11-26T13:30:09.473Z,3.60
2018-11-26T13:32:39.553Z,2.37
2018-11-26T13:35:11.398Z,4.80
2018-11-26T13:37:40.526Z,121.30
2018-11-26T13:40:13.053Z,127.90
2018-11-26T13:42:42.461Z,6.87
2018-11-26T13:45:21.860Z,28.57
2018-11-26T13:47:51.419Z,10.87
2018-11-26T13:50:24.371Z,12.63
2018-11-26T13:55:42.587Z,19.77
2018-11-26T13:58:28.197Z,9.90
2018-11-26T14:01:05.511Z,4.97
2018-11-26T14:06:56.864Z,13.97
2018-11-26T14:09:27.093Z,5.57
2018-11-26T14:11:59.639Z,5.10
2018-11-26T14:14:29.350Z,3.40
2018-11-26T14:16:58.453Z,4.10
2018-11-26T14:19:30.183Z,4.80
2018-11-26T14:22:00.426Z,7.80
2018-11-26T14:24:30.866Z,7.97
2018-11-26T14:27:02.660Z,5.60
2018-11-26T14:29:32.232Z,2.57
2018-11-26T14:32:01.755Z,2.57
2018-11-26T14:46:49.445Z,4.20
2018-11-26T14:49:28.588Z,3.37
2018-11-26T14:52:06.912Z,5.20
2018-11-26T14:54:36.289Z,3.30
2018-11-26T14:57:05.544Z,5.37
2018-11-26T14:59:35.130Z,6.43
2018-11-26T15:02:05.386Z,4.13
2018-11-26T15:04:34.581Z,9.40
2018-11-26T15:07:09.880Z,2.80
2018-11-26T15:09:40.490Z,3.80
2018-11-26T15:12:12.395Z,4.07
2018-11-26T15:14:43.541Z,8.63
2018-11-26T15:17:12.850Z,5.40
2018-11-26T15:19:42.102Z,5.70
2018-11-26T15:22:11.262Z,4.23
2018-11-26T15:24:40.324Z,7.50
2018-11-26T15:27:09.500Z,5.93
2018-11-26T15:29:38.652Z,6.03
2018-11-26T15:32:08.374Z,4.57
2018-11-26T15:34:38.874Z,4.87
2018-11-26T15:37:09.224Z,5.27
2018-11-26T15:39:40.706Z,6.90
2018-11-26T15:45:19.694Z,5.10
2018-11-26T15:57:24.890Z,5.27
2018-11-26T16:06:23.738Z,5.40
2018-11-26T16:08:55.574Z,4.20
2018-11-26T16:14:56.296Z,2.90
2018-11-26T16:19:06.594Z,3.37
2018-11-26T16:21:36.000Z,4.93
2018-11-26T16:24:05.578Z,4.03
2018-11-26T16:26:36.163Z,4.63
2018-11-26T16:29:06.259Z,10.83
2018-11-26T16:31:35.210Z,6.53
2018-11-26T16:34:04.480Z,5.13
2018-11-26T16:36:34.817Z,5.10
2018-11-26T16:39:06.224Z,8.17
2018-11-26T16:41:36.468Z,6.40
2018-11-26T16:44:06.392Z,7.93
2018-11-26T16:46:35.544Z,5.10
2018-11-26T16:49:04.710Z,5.70
2018-11-26T16:51:34.241Z,5.10
2018-11-26T16:54:03.717Z,6.47
2018-11-26T16:56:34.084Z,4.20
2018-11-26T16:59:03.480Z,5.67
2018-11-26T17:01:32.853Z,3.73
2018-11-26T17:04:02.028Z,4.63
2018-11-26T17:06:31.080Z,5.33
2018-11-26T17:09:00.268Z,7.13
2018-11-26T17:11:30.195Z,6.10
2018-11-26T17:13:59.291Z,8.83
2018-11-26T17:16:28.413Z,5.37
2018-11-26T17:18:57.558Z,5.23
2018-11-26T17:21:26.656Z,5.40
2018-11-26T17:23:55.881Z,6.70
2018-11-26T17:26:24.989Z,5.40
2018-11-26T17:28:54.107Z,4.03
2018-11-26T17:31:23.276Z,7.30
2018-11-26T17:33:52.565Z,7.23
2018-11-26T17:36:22.142Z,9.40
2018-11-26T17:38:51.988Z,9.20
2018-11-26T17:41:22.976Z,6.27
2018-11-26T17:43:52.893Z,7.57
2018-11-26T17:46:22.577Z,5.23
2018-11-26T17:48:52.307Z,9.23
2018-11-26T17:51:22.331Z,7.10
2018-11-26T17:53:52.180Z,4.53
2018-11-26T17:56:22.110Z,6.60
2018-11-26T17:58:51.591Z,9.73
2018-11-26T18:01:28.706Z,15.73
2018-11-26T18:03:58.770Z,7.33
2018-11-26T18:06:34.191Z,6.50
2018-11-26T18:09:03.418Z,10.57
2018-11-26T18:11:32.909Z,6.73
2018-11-26T18:14:02.256Z,3.77
2018-11-26T18:16:31.322Z,6.13
2018-11-26T18:19:00.439Z,5.80
2018-11-26T18:21:29.727Z,4.37
2018-11-26T18:23:58.861Z,4.90
2018-11-26T18:26:28.051Z,6.70
2018-11-26T18:28:57.298Z,7.27
2018-11-26T18:31:26.446Z,4.70
2018-11-26T18:33:55.511Z,5.10
2018-11-26T18:36:25.159Z,7.23
2018-11-26T18:38:54.315Z,6.87
2018-11-26T18:41:23.621Z,3.70
2018-11-26T18:43:52.944Z,4.57
2018-11-26T18:46:22.205Z,4.13
2018-11-26T18:48:51.470Z,4.37
2018-11-26T18:51:20.691Z,6.40
2018-11-26T18:53:49.832Z,5.20
2018-11-26T18:56:18.907Z,4.57
2018-11-26T18:58:48.036Z,6.77
2018-11-26T19:01:17.217Z,7.60
2018-11-26T19:03:46.260Z,4.80
2018-11-26T19:06:15.310Z,5.63
2018-11-26T19:08:44.552Z,8.53
2018-11-26T19:11:16.328Z,7.70
2018-11-26T19:13:57.738Z,15.70
2018-11-26T19:16:33.786Z,6.00
2018-11-26T19:19:02.914Z,4.17
2018-11-26T19:21:32.128Z,8.20
2018-11-26T19:24:01.459Z,4.37
2018-11-26T19:26:31.856Z,5.77
2018-11-26T19:29:01.113Z,6.53
2018-11-26T19:31:31.980Z,5.53
2018-11-26T19:34:01.743Z,5.50
2018-11-26T19:36:31.149Z,6.47
2018-11-26T19:39:00.459Z,6.13
2018-11-26T19:41:29.628Z,3.90
2018-11-26T19:43:59.850Z,4.50
2018-11-26T19:46:30.294Z,3.87
2018-11-26T19:48:59.548Z,4.87
2018-11-26T19:51:28.693Z,4.07
2018-11-26T19:53:58.034Z,3.60
2018-11-26T19:56:34.374Z,4.63
2018-11-26T19:59:03.656Z,3.73
2018-11-26T20:01:33.636Z,3.40
2018-11-26T20:04:31.690Z,4.13
2018-11-26T20:07:00.787Z,4.80
2018-11-26T20:09:29.905Z,4.27
2018-11-26T20:11:58.977Z,2.87
2018-11-26T20:14:28.058Z,3.37
2018-11-26T20:16:57.228Z,4.90
2018-11-26T20:19:26.364Z,3.93
2018-11-26T20:21:55.433Z,4.00
2018-11-26T20:24:26.758Z,3.87
2018-11-26T20:26:56.178Z,5.27
2018-11-26T20:29:25.307Z,5.30
2018-11-26T20:31:54.718Z,6.90
2018-11-26T20:34:25.580Z,10.20
2018-11-26T20:36:54.809Z,7.97
2018-11-26T20:39:23.885Z,9.83
2018-11-26T20:41:53.004Z,11.57
2018-11-26T20:44:22.265Z,10.77
2018-11-26T20:46:51.387Z,12.10
2018-11-26T20:49:20.758Z,11.20
2018-11-26T20:51:49.896Z,9.90
2018-11-26T20:54:19.619Z,10.00
2018-11-26T20:56:48.741Z,11.37
2018-11-26T20:59:18.249Z,13.47
2018-11-26T21:01:47.413Z,9.30
2018-11-26T21:04:16.627Z,9.40
2018-11-26T21:06:45.878Z,11.80
2018-11-26T21:09:15.215Z,11.17
2018-11-26T21:11:44.647Z,14.40
2018-11-26T21:14:13.750Z,11.83
2018-11-26T21:16:43.833Z,9.63
2018-11-26T21:19:12.904Z,11.07
2018-11-26T21:21:42.081Z,10.20
2018-11-26T21:24:11.737Z,11.73
2018-11-26T21:26:41.036Z,11.73
2018-11-26T21:29:10.242Z,8.47
2018-11-26T21:31:39.381Z,13.80
2018-11-26T21:34:08.481Z,10.33
2018-11-26T21:36:37.567Z,11.00
2018-11-26T21:39:10.500Z,8.87
2018-11-26T21:41:39.588Z,12.87
2018-11-26T21:44:08.673Z,9.73
2018-11-26T21:46:39.194Z,13.47
2018-11-26T21:49:10.584Z,10.00
2018-11-26T21:51:39.983Z,19.50
2018-11-26T21:54:09.144Z,13.90
2018-11-26T21:56:38.306Z,10.77
2018-11-26T21:59:09.008Z,10.23
2018-11-26T22:01:38.386Z,10.67
2018-11-26T22:04:07.457Z,13.17
2018-11-26T22:06:36.551Z,10.50
2018-11-26T22:09:09.398Z,11.17
2018-11-26T22:11:38.624Z,10.90
2018-11-26T22:14:07.830Z,10.80
2018-11-26T22:16:36.980Z,12.40
2018-11-26T22:19:07.523Z,8.87
2018-11-26T22:21:36.615Z,9.03
2018-11-26T22:24:05.844Z,11.53
2018-11-26T22:26:34.928Z,14.70
2018-11-26T22:29:04.045Z,11.40
2018-11-26T22:31:33.186Z,10.90
2018-11-26T22:34:02.292Z,11.87
2018-11-26T22:36:31.518Z,10.80
2018-11-26T22:39:00.838Z,12.53
2018-11-26T22:41:30.118Z,15.10
2018-11-26T22:44:00.203Z,11.40
2018-11-26T22:46:29.518Z,8.93
2018-11-26T22:48:58.640Z,10.43
2018-11-26T22:51:27.788Z,14.40
2018-11-26T22:53:56.873Z,12.27
2018-11-26T22:56:25.968Z,12.87
2018-11-26T22:58:55.054Z,11.90
2018-11-26T23:01:24.111Z,16.57
2018-11-26T23:03:53.215Z,9.87
2018-11-26T23:06:22.290Z,11.50
2018-11-26T23:08:51.376Z,11.90
2018-11-26T23:11:20.596Z,13.50
2018-11-26T23:13:49.736Z,9.10
2018-11-26T23:16:18.890Z,11.00
2018-11-26T23:18:47.928Z,13.70
2018-11-26T23:21:16.972Z,14.90
2018-11-26T23:23:46.294Z,13.40
2018-11-26T23:26:16.142Z,13.70
2018-11-26T23:28:45.448Z,11.70
2018-11-26T23:31:14.686Z,10.97
2018-11-26T23:33:43.910Z,13.20
2018-11-26T23:36:13.126Z,15.33
2018-11-26T23:38:42.384Z,12.33
2018-11-26T23:41:11.789Z,11.83
2018-11-26T23:43:41.008Z,13.20
2018-11-26T23:46:10.162Z,11.40
2018-11-26T23:48:39.331Z,13.33
2018-11-26T23:51:08.441Z,14.17
2018-11-26T23:53:37.480Z,13.37
2018-11-26T23:56:06.944Z,11.40
2018-11-26T23:58:36.036Z,14.43
